createdAt,value
2018-02-20T00:00:09.727Z,28.60
2018-02-20T00:02:38.063Z,27.90
2018-02-20T00:05:06.416Z,25.97
2018-02-20T00:07:34.748Z,26.27
2018-02-20T00:10:03.087Z,27.13
2018-02-20T00:12:32.148Z,27.17
2018-02-20T00:15:00.498Z,28.30
2018-02-20T00:17:29.612Z,27.17
2018-02-20T00:19:58.085Z,26.47
2018-02-20T00:22:26.426Z,26.83
2018-02-20T00:24:54.784Z,27.30
2018-02-20T00:27:23.300Z,26.67
2018-02-20T00:29:51.635Z,28.20
2018-02-20T00:32:19.997Z,26.07
2018-02-20T00:34:48.365Z,27.53
2018-02-20T00:37:16.702Z,26.33
2018-02-20T00:39:45.168Z,27.20
2018-02-20T00:42:13.522Z,26.10
2018-02-20T00:44:41.850Z,26.13
2018-02-20T00:47:10.304Z,24.50
2018-02-20T00:49:38.640Z,25.90
2018-02-20T00:52:06.984Z,27.37
2018-02-20T00:54:35.323Z,24.77
2018-02-20T00:57:03.675Z,25.87
2018-02-20T00:59:32.067Z,24.43
2018-02-20T01:02:00.404Z,25.97
2018-02-20T01:04:30.246Z,24.60
2018-02-20T01:06:58.636Z,24.63
2018-02-20T01:09:26.973Z,25.10
2018-02-20T01:11:56.163Z,25.90
2018-02-20T01:14:24.525Z,23.97
2018-02-20T01:16:52.888Z,23.80
2018-02-20T01:19:21.253Z,24.80
2018-02-20T01:21:49.579Z,24.20
2018-02-20T01:24:18.026Z,25.67
2018-02-20T01:26:46.378Z,25.53
2018-02-20T01:29:14.769Z,24.50
2018-02-20T01:31:43.152Z,25.50
2018-02-20T01:34:11.509Z,26.23
2018-02-20T01:36:40.009Z,24.27
2018-02-20T01:39:08.365Z,24.40
2018-02-20T01:41:36.715Z,25.40
2018-02-20T01:44:05.081Z,25.63
2018-02-20T01:46:33.421Z,26.87
2018-02-20T01:49:01.764Z,25.83
2018-02-20T01:51:30.185Z,25.67
2018-02-20T01:53:58.684Z,26.00
2018-02-20T01:56:27.047Z,26.90
2018-02-20T01:58:55.424Z,25.50
2018-02-20T02:01:23.791Z,25.60
2018-02-20T02:03:52.177Z,28.37
2018-02-20T02:06:20.520Z,27.57
2018-02-20T02:08:49.631Z,27.13
2018-02-20T02:11:18.036Z,27.97
2018-02-20T02:13:46.409Z,26.37
2018-02-20T02:16:14.813Z,27.33
2018-02-20T02:18:43.267Z,28.10
2018-02-20T02:21:11.616Z,25.77
2018-02-20T02:23:40.740Z,27.67
2018-02-20T02:26:09.095Z,27.00
2018-02-20T02:28:38.195Z,27.13
2018-02-20T02:31:07.322Z,26.70
2018-02-20T02:33:35.733Z,29.07
2018-02-20T02:36:04.110Z,27.67
2018-02-20T02:38:32.472Z,26.50
2018-02-20T02:41:01.021Z,27.33
2018-02-20T02:43:29.395Z,27.33
2018-02-20T02:45:58.736Z,28.43
2018-02-20T02:48:27.072Z,28.97
2018-02-20T02:50:56.182Z,27.17
2018-02-20T02:53:24.524Z,28.40
2018-02-20T02:55:52.872Z,28.93
2018-02-20T02:58:21.248Z,26.57
2018-02-20T03:00:49.617Z,29.60
2018-02-20T03:03:18.031Z,28.43
2018-02-20T03:05:46.467Z,27.27
2018-02-20T03:08:14.811Z,27.57
2018-02-20T03:10:43.164Z,27.33
2018-02-20T03:13:11.511Z,28.60
2018-02-20T03:15:39.868Z,27.57
2018-02-20T03:18:08.221Z,27.73
2018-02-20T03:20:36.661Z,26.57
2018-02-20T03:23:05.032Z,30.10
2018-02-20T03:25:33.572Z,28.80
2018-02-20T03:28:01.984Z,28.07
2018-02-20T03:30:30.345Z,30.17
2018-02-20T03:32:59.468Z,27.63
2018-02-20T03:35:27.822Z,29.20
2018-02-20T03:37:56.176Z,28.30
2018-02-20T03:40:24.521Z,28.87
2018-02-20T03:42:53.701Z,26.43
2018-02-20T03:45:22.070Z,27.37
2018-02-20T03:47:50.457Z,26.93
2018-02-20T03:50:19.065Z,28.53
2018-02-20T03:52:47.383Z,28.20
2018-02-20T03:55:16.525Z,29.67
2018-02-20T03:57:44.867Z,28.87
2018-02-20T04:00:13.992Z,27.30
2018-02-20T04:02:42.356Z,28.87
2018-02-20T04:05:10.713Z,28.83
2018-02-20T04:07:39.043Z,31.07
2018-02-20T04:10:07.403Z,28.77
2018-02-20T04:12:35.788Z,29.37
2018-02-20T04:15:04.183Z,28.30
2018-02-20T04:17:32.567Z,30.07
2018-02-20T04:20:00.936Z,29.00
2018-02-20T04:22:29.283Z,29.03
2018-02-20T04:24:57.628Z,29.90
2018-02-20T04:27:25.981Z,28.33
2018-02-20T04:29:54.341Z,28.77
2018-02-20T04:32:22.676Z,30.00
2018-02-20T04:34:51.832Z,29.73
2018-02-20T04:37:20.271Z,29.23
2018-02-20T04:39:48.631Z,28.27
2018-02-20T04:42:17.112Z,31.00
2018-02-20T04:44:45.472Z,30.67
2018-02-20T04:47:13.825Z,29.97
2018-02-20T04:49:42.189Z,30.20
2018-02-20T04:52:10.536Z,30.77
2018-02-20T04:54:39.652Z,30.03
2018-02-20T04:57:07.992Z,30.13
2018-02-20T04:59:36.738Z,30.47
2018-02-20T05:02:05.112Z,28.63
2018-02-20T05:04:33.483Z,31.30
2018-02-20T05:07:01.840Z,31.80
2018-02-20T05:09:30.996Z,29.90
2018-02-20T05:11:59.342Z,29.60
2018-02-20T05:14:27.737Z,31.50
2018-02-20T05:16:56.080Z,31.57
2018-02-20T05:19:25.284Z,30.03
2018-02-20T05:21:53.646Z,29.97
2018-02-20T05:24:22.773Z,29.87
2018-02-20T05:26:51.153Z,32.03
2018-02-20T05:29:19.548Z,31.70
2018-02-20T05:31:47.889Z,29.83
2018-02-20T05:34:16.301Z,30.37
2018-02-20T05:36:44.681Z,30.53
2018-02-20T05:39:13.020Z,28.47
2018-02-20T05:41:42.148Z,31.73
2018-02-20T05:44:10.982Z,30.43
2018-02-20T05:46:39.425Z,30.40
2018-02-20T05:49:07.804Z,30.97
2018-02-20T05:51:36.176Z,29.53
2018-02-20T05:54:04.517Z,30.93
2018-02-20T05:56:32.876Z,34.43
2018-02-20T05:59:01.341Z,39.10
2018-02-20T06:01:29.764Z,34.27
2018-02-20T06:03:59.760Z,31.77
2018-02-20T06:06:28.092Z,31.80
2018-02-20T06:08:56.443Z,31.57
2018-02-20T06:11:24.831Z,31.57
2018-02-20T06:13:53.943Z,32.67
2018-02-20T06:16:22.339Z,30.13
2018-02-20T06:18:50.707Z,30.83
2018-02-20T06:21:19.053Z,30.73
2018-02-20T06:23:48.185Z,32.07
2018-02-20T06:26:16.536Z,31.47
2018-02-20T06:28:45.646Z,32.07
2018-02-20T06:31:14.046Z,31.10
2018-02-20T06:33:42.496Z,31.93
2018-02-20T06:36:10.940Z,32.20
2018-02-20T06:38:39.348Z,33.40
2018-02-20T06:41:08.481Z,30.90
2018-02-20T06:43:36.987Z,46.47
2018-02-20T06:46:05.359Z,36.47
2018-02-20T06:48:33.711Z,30.80
2018-02-20T06:51:02.072Z,31.53
2018-02-20T06:53:30.688Z,30.13
2018-02-20T06:55:59.048Z,32.47
2018-02-20T06:58:27.404Z,31.67
2018-02-20T07:00:55.744Z,32.00
2018-02-20T07:03:24.204Z,31.13
2018-02-20T07:05:52.541Z,33.43
2018-02-20T07:08:21.656Z,30.27
2018-02-20T07:10:49.996Z,28.67
2018-02-20T07:13:18.446Z,32.30
2018-02-20T07:15:46.790Z,31.90
2018-02-20T07:18:15.140Z,31.93
2018-02-20T07:20:43.573Z,31.23
2018-02-20T07:23:11.973Z,31.53
2018-02-20T07:25:40.264Z,29.77
2018-02-20T07:28:08.728Z,30.40
2018-02-20T07:30:37.067Z,31.53
2018-02-20T07:33:05.469Z,29.80
2018-02-20T07:35:33.819Z,30.13
2018-02-20T07:38:02.173Z,30.97
2018-02-20T07:40:30.533Z,27.90
2018-02-20T07:42:59.073Z,29.97
2018-02-20T07:45:27.425Z,30.60
2018-02-20T07:47:56.549Z,28.90
2018-02-20T07:50:24.942Z,27.40
2018-02-20T07:52:53.400Z,29.03
2018-02-20T07:55:21.808Z,27.70
2018-02-20T07:57:50.169Z,27.43
2018-02-20T08:00:18.512Z,28.30
2018-02-20T08:02:46.868Z,27.67
2018-02-20T08:05:15.319Z,29.27
2018-02-20T08:07:44.015Z,28.23
2018-02-20T08:10:12.353Z,26.23
2018-02-20T08:12:41.496Z,27.23
2018-02-20T08:15:09.876Z,27.37
2018-02-20T08:17:38.344Z,25.60
2018-02-20T08:20:06.834Z,26.13
2018-02-20T08:22:35.208Z,27.57
2018-02-20T08:25:04.300Z,28.47
2018-02-20T08:27:32.753Z,25.63
2018-02-20T08:30:01.070Z,27.40
2018-02-20T08:32:29.422Z,27.07
2018-02-20T08:34:57.764Z,26.43
2018-02-20T08:37:26.134Z,26.77
2018-02-20T08:39:54.474Z,25.67
2018-02-20T08:42:22.940Z,27.00
2018-02-20T08:44:51.441Z,25.80
2018-02-20T08:47:19.895Z,26.37
2018-02-20T08:49:49.015Z,26.20
2018-02-20T08:52:17.392Z,26.47
2018-02-20T08:54:45.735Z,25.80
2018-02-20T08:57:14.077Z,27.33
2018-02-20T08:59:42.439Z,27.07
2018-02-20T09:02:10.770Z,24.93
2018-02-20T09:04:39.907Z,26.53
2018-02-20T09:07:08.324Z,25.73
2018-02-20T09:09:36.672Z,28.23
2018-02-20T09:12:05.150Z,26.43
2018-02-20T09:14:33.633Z,25.87
2018-02-20T09:17:01.975Z,26.73
2018-02-20T09:19:31.089Z,25.63
2018-02-20T09:21:59.455Z,26.40
2018-02-20T09:24:27.784Z,27.60
2018-02-20T09:26:56.132Z,27.53
2018-02-20T09:29:24.476Z,27.13
2018-02-20T09:31:52.801Z,27.80
2018-02-20T09:34:21.369Z,28.27
2018-02-20T09:36:49.975Z,28.27
2018-02-20T09:39:19.383Z,28.40
2018-02-20T09:41:48.955Z,26.80
2018-02-20T09:44:18.063Z,27.10
2018-02-20T09:46:46.516Z,28.80
2018-02-20T09:49:15.705Z,28.30
2018-02-20T09:51:44.047Z,28.33
2018-02-20T09:54:12.414Z,27.17
2018-02-20T09:56:40.789Z,27.37
2018-02-20T09:59:09.118Z,27.90
2018-02-20T10:01:37.536Z,30.27
2018-02-20T10:04:05.893Z,28.60
2018-02-20T10:06:35.073Z,29.77
2018-02-20T10:09:03.398Z,27.60
2018-02-20T10:11:31.785Z,28.70
2018-02-20T10:14:00.138Z,27.63
2018-02-20T10:16:28.480Z,28.67
2018-02-20T10:18:56.816Z,29.53
2018-02-20T10:21:25.166Z,29.43
2018-02-20T10:23:54.437Z,27.97
2018-02-20T10:26:22.771Z,26.93
2018-02-20T10:28:51.116Z,26.93
2018-02-20T10:31:20.326Z,26.00
2018-02-20T10:33:49.432Z,27.03
2018-02-20T10:36:17.772Z,27.70
2018-02-20T10:38:46.220Z,28.23
2018-02-20T10:41:14.581Z,27.57
2018-02-20T10:43:42.934Z,27.87
2018-02-20T10:46:11.374Z,26.67
2018-02-20T10:48:39.820Z,30.67
2018-02-20T10:51:08.169Z,28.77
2018-02-20T10:53:36.510Z,27.87
2018-02-20T10:56:04.894Z,28.17
2018-02-20T10:58:33.266Z,28.53
2018-02-20T11:01:01.603Z,28.27
2018-02-20T11:03:29.941Z,27.67
2018-02-20T11:05:58.389Z,28.83
2018-02-20T11:08:26.724Z,32.07
2018-02-20T11:10:55.857Z,30.67
2018-02-20T11:13:24.242Z,31.50
2018-02-20T11:15:53.300Z,32.53
2018-02-20T11:18:22.411Z,31.60
2018-02-20T11:20:50.752Z,30.30
2018-02-20T11:23:19.123Z,32.07
2018-02-20T11:25:47.555Z,31.97
2018-02-20T11:28:15.974Z,30.73
2018-02-20T11:30:44.322Z,31.70
2018-02-20T11:33:12.736Z,31.93
2018-02-20T11:35:41.072Z,32.00
2018-02-20T11:38:09.432Z,32.33
2018-02-20T11:40:38.542Z,33.27
2018-02-20T11:43:06.880Z,33.00
2018-02-20T11:45:35.246Z,33.63
2018-02-20T11:48:03.597Z,34.63
2018-02-20T11:50:32.075Z,33.43
2018-02-20T11:53:00.427Z,32.67
2018-02-20T11:55:28.780Z,33.73
2018-02-20T11:57:57.334Z,32.83
2018-02-20T12:00:25.678Z,32.80
2018-02-20T12:02:54.040Z,35.70
2018-02-20T12:05:22.449Z,34.73
2018-02-20T12:07:50.792Z,33.23
2018-02-20T12:10:19.226Z,34.97
2018-02-20T12:12:47.568Z,35.20
2018-02-20T12:15:15.946Z,35.27
2018-02-20T12:17:44.294Z,36.00
2018-02-20T12:20:12.748Z,35.67
2018-02-20T12:22:41.084Z,36.97
2018-02-20T12:25:10.190Z,36.67
2018-02-20T12:27:38.589Z,34.53
2018-02-20T12:30:06.929Z,37.80
2018-02-20T12:32:36.059Z,35.13
2018-02-20T12:35:04.505Z,35.40
2018-02-20T12:37:33.910Z,35.07
2018-02-20T12:40:02.468Z,39.53
2018-02-20T12:42:30.811Z,37.37
2018-02-20T12:44:59.191Z,35.30
2018-02-20T12:47:27.557Z,35.50
2018-02-20T12:49:55.932Z,37.27
2018-02-20T12:52:24.326Z,35.13
2018-02-20T12:54:52.696Z,36.40
2018-02-20T12:57:21.040Z,37.63
2018-02-20T12:59:49.474Z,35.27
2018-02-20T13:02:17.847Z,36.07
2018-02-20T13:04:46.189Z,35.10
2018-02-20T13:07:15.368Z,34.17
2018-02-20T13:09:43.663Z,34.17
2018-02-20T13:12:12.040Z,34.73
2018-02-20T13:14:41.186Z,34.70
2018-02-20T13:17:09.517Z,34.67
2018-02-20T13:19:38.620Z,35.17
2018-02-20T13:22:06.981Z,33.37
2018-02-20T13:24:36.106Z,35.97
2018-02-20T13:27:04.508Z,34.17
2018-02-20T13:29:32.880Z,34.97
2018-02-20T13:32:01.378Z,34.47
2018-02-20T13:34:29.741Z,35.73
2018-02-20T13:36:58.092Z,35.83
2018-02-20T13:39:27.220Z,36.83
2018-02-20T13:41:55.579Z,35.57
2018-02-20T13:44:23.927Z,37.07
2018-02-20T13:46:52.364Z,35.23
2018-02-20T13:49:20.734Z,37.13
2018-02-20T13:51:49.090Z,37.90
2018-02-20T13:54:17.492Z,36.40
2018-02-20T13:56:45.874Z,37.63
2018-02-20T13:59:14.220Z,37.37
2018-02-20T14:01:43.332Z,36.17
2018-02-20T14:04:11.730Z,36.50
2018-02-20T14:06:40.073Z,36.87
2018-02-20T14:09:09.171Z,35.03
2018-02-20T14:11:38.293Z,35.70
2018-02-20T14:14:06.636Z,35.27
2018-02-20T14:16:35.889Z,34.87
2018-02-20T14:19:04.229Z,35.13
2018-02-20T14:21:33.213Z,35.13
2018-02-20T14:24:01.571Z,34.27
2018-02-20T14:26:29.927Z,34.30
2018-02-20T14:28:58.268Z,34.97
2018-02-20T14:31:26.662Z,33.80
2018-02-20T14:33:55.024Z,33.77
2018-02-20T14:36:23.427Z,34.77
2018-02-20T14:38:51.779Z,35.17
2018-02-20T14:41:20.147Z,35.23
2018-02-20T14:43:48.574Z,34.93
2018-02-20T14:46:16.910Z,35.10
2018-02-20T14:48:46.017Z,37.80
2018-02-20T14:51:14.416Z,35.83
2018-02-20T14:53:42.764Z,33.43
2018-02-20T14:56:11.280Z,35.70
2018-02-20T14:58:39.616Z,36.30
2018-02-20T15:01:08.021Z,35.57
2018-02-20T15:03:36.418Z,35.13
2018-02-20T15:06:04.752Z,35.73
2018-02-20T15:08:33.865Z,36.43
2018-02-20T15:11:02.265Z,35.33
2018-02-20T15:13:30.624Z,43.57
2018-02-20T15:15:58.979Z,34.17
2018-02-20T15:18:27.326Z,37.03
2018-02-20T15:20:55.664Z,36.03
2018-02-20T15:23:24.009Z,36.03
2018-02-20T15:25:52.357Z,34.07
2018-02-20T15:28:20.753Z,35.37
2018-02-20T15:30:49.105Z,35.30
2018-02-20T15:33:17.446Z,36.23
2018-02-20T15:35:46.547Z,35.97
2018-02-20T15:38:15.657Z,34.87
2018-02-20T15:40:44.050Z,36.73
2018-02-20T15:43:12.425Z,35.73
2018-02-20T15:45:40.800Z,36.67
2018-02-20T15:48:09.179Z,34.80
2018-02-20T15:50:38.279Z,35.13
2018-02-20T15:53:06.676Z,35.33
2018-02-20T15:55:35.015Z,35.17
2018-02-20T15:58:04.151Z,33.80
2018-02-20T16:00:32.675Z,35.73
2018-02-20T16:03:01.013Z,35.63
2018-02-20T16:05:29.376Z,35.27
2018-02-20T16:07:57.715Z,35.97
2018-02-20T16:10:26.836Z,35.83
2018-02-20T16:12:55.949Z,37.73
2018-02-20T16:15:24.342Z,39.37
2018-02-20T16:17:52.676Z,38.40
2018-02-20T16:20:21.790Z,40.30
2018-02-20T16:22:50.180Z,40.57
2018-02-20T16:25:18.988Z,41.97
2018-02-20T16:27:47.335Z,43.10
2018-02-20T16:30:15.699Z,42.17
2018-02-20T16:32:44.811Z,41.97
2018-02-20T16:35:13.248Z,44.23
2018-02-20T16:37:41.702Z,44.67
2018-02-20T16:40:10.059Z,42.47
2018-02-20T16:42:38.402Z,43.57
2018-02-20T16:45:06.759Z,43.00
2018-02-20T16:47:35.217Z,43.50
2018-02-20T16:50:03.605Z,44.83
2018-02-20T16:52:31.940Z,45.50
2018-02-20T16:55:00.281Z,45.73
2018-02-20T16:57:28.741Z,45.90
2018-02-20T16:59:57.153Z,47.47
2018-02-20T17:02:25.456Z,46.53
2018-02-20T17:04:53.970Z,48.57
2018-02-20T17:07:22.337Z,47.70
2018-02-20T17:09:50.686Z,43.97
2018-02-20T17:12:20.734Z,45.40
2018-02-20T17:14:49.104Z,46.77
2018-02-20T17:17:17.450Z,43.13
2018-02-20T17:19:45.800Z,45.47
2018-02-20T17:22:14.208Z,49.70
2018-02-20T17:24:42.565Z,46.07
2018-02-20T17:27:10.897Z,46.90
2018-02-20T17:29:39.379Z,47.43
2018-02-20T17:32:08.746Z,46.50
2018-02-20T17:34:37.093Z,45.47
2018-02-20T17:37:05.434Z,47.77
2018-02-20T17:39:33.805Z,48.77
2018-02-20T17:42:02.910Z,47.27
2018-02-20T17:44:31.388Z,46.83
2018-02-20T17:46:59.762Z,47.63
2018-02-20T17:49:28.899Z,47.60
2018-02-20T17:51:57.264Z,48.70
2018-02-20T17:54:25.603Z,48.40
2018-02-20T17:56:54.799Z,48.77
2018-02-20T17:59:23.129Z,51.20
2018-02-20T18:01:51.510Z,49.20
2018-02-20T18:04:19.862Z,48.20
2018-02-20T18:06:48.233Z,46.67
2018-02-20T18:09:17.339Z,49.07
2018-02-20T18:11:45.688Z,49.53
2018-02-20T18:14:14.087Z,48.17
2018-02-20T18:16:42.527Z,51.70
2018-02-20T18:19:10.915Z,51.40
2018-02-20T18:21:39.256Z,47.53
2018-02-20T18:24:07.632Z,49.47
2018-02-20T18:26:36.066Z,50.03
2018-02-20T18:29:04.395Z,51.17
2018-02-20T18:31:32.766Z,51.73
2018-02-20T18:34:01.162Z,51.97
2018-02-20T18:36:29.543Z,53.63
2018-02-20T18:38:57.907Z,53.07
2018-02-20T18:41:26.285Z,53.67
2018-02-20T18:43:54.649Z,50.87
2018-02-20T18:46:23.026Z,52.77
2018-02-20T18:48:51.428Z,51.90
2018-02-20T18:51:19.814Z,52.77
2018-02-20T18:53:48.195Z,52.73
2018-02-20T18:56:16.617Z,52.73
2018-02-20T18:58:44.968Z,53.27
2018-02-20T19:01:13.337Z,54.10
2018-02-20T19:03:41.814Z,53.93
2018-02-20T19:06:10.175Z,53.57
2018-02-20T19:08:38.525Z,51.93
2018-02-20T19:11:07.564Z,54.43
2018-02-20T19:13:36.061Z,52.33
2018-02-20T19:16:04.416Z,54.77
2018-02-20T19:18:32.797Z,54.13
2018-02-20T19:21:02.091Z,51.87
2018-02-20T19:23:30.473Z,53.60
2018-02-20T19:25:58.838Z,50.93
2018-02-20T19:28:27.212Z,54.17
2018-02-20T19:30:55.626Z,53.90
2018-02-20T19:33:24.001Z,54.20
2018-02-20T19:35:53.281Z,54.87
2018-02-20T19:38:21.669Z,53.00
2018-02-20T19:40:50.616Z,50.27
2018-02-20T19:43:18.970Z,64.07
2018-02-20T19:45:47.342Z,56.43
2018-02-20T19:48:15.760Z,55.23
2018-02-20T19:50:44.173Z,53.37
2018-02-20T19:53:12.532Z,54.33
2018-02-20T19:55:40.971Z,52.73
2018-02-20T19:58:09.378Z,52.27
2018-02-20T20:00:37.764Z,56.13
2018-02-20T20:03:06.205Z,57.73
2018-02-20T20:05:34.583Z,56.77
2018-02-20T20:08:02.958Z,52.60
2018-02-20T20:10:31.346Z,54.60
2018-02-20T20:12:59.832Z,56.73
2018-02-20T20:15:28.990Z,55.83
2018-02-20T20:17:57.352Z,56.67
2018-02-20T20:20:36.905Z,63.40
2018-02-20T20:22:54.968Z,57.93
2018-02-20T20:25:23.350Z,58.30
2018-02-20T20:27:51.721Z,59.50
2018-02-20T20:30:20.153Z,59.67
2018-02-20T20:32:49.269Z,63.07
2018-02-20T20:35:17.714Z,61.93
2018-02-20T20:37:46.146Z,60.30
2018-02-20T20:40:14.511Z,63.27
2018-02-20T20:42:42.905Z,58.60
2018-02-20T20:45:11.292Z,58.17
2018-02-20T20:47:39.708Z,59.77
2018-02-20T20:50:08.057Z,59.13
2018-02-20T20:52:36.575Z,60.47
2018-02-20T20:55:05.002Z,57.63
2018-02-20T20:57:34.386Z,54.63
2018-02-20T21:00:03.505Z,54.47
2018-02-20T21:02:31.854Z,57.80
2018-02-20T21:05:01.000Z,54.33
2018-02-20T21:07:29.487Z,54.43
2018-02-20T21:09:57.838Z,54.40
2018-02-20T21:12:26.233Z,53.60
2018-02-20T21:14:54.587Z,52.23
2018-02-20T21:17:22.953Z,51.40
2018-02-20T21:19:51.320Z,49.83
2018-02-20T21:22:19.866Z,52.20
2018-02-20T21:24:48.249Z,49.93
2018-02-20T21:27:16.591Z,52.00
2018-02-20T21:29:45.006Z,50.13
2018-02-20T21:32:14.016Z,51.70
2018-02-20T21:34:42.376Z,51.87
2018-02-20T21:37:10.771Z,50.40
2018-02-20T21:39:39.164Z,52.63
2018-02-20T21:42:07.614Z,49.83
2018-02-20T21:44:35.959Z,49.40
2018-02-20T21:47:04.331Z,53.50
2018-02-20T21:49:33.452Z,50.83
2018-02-20T21:52:01.858Z,49.57
2018-02-20T21:54:30.215Z,50.13
2018-02-20T21:56:58.592Z,51.67
2018-02-20T21:59:26.943Z,49.50
2018-02-20T22:01:55.306Z,49.10
2018-02-20T22:04:23.748Z,49.80
2018-02-20T22:06:52.078Z,48.80
2018-02-20T22:09:21.315Z,46.10
2018-02-20T22:11:49.682Z,46.30
2018-02-20T22:14:18.041Z,47.30
2018-02-20T22:16:46.404Z,46.57
2018-02-20T22:19:14.781Z,45.87
2018-02-20T22:21:43.910Z,45.20
2018-02-20T22:24:12.286Z,45.13
2018-02-20T22:26:40.639Z,45.00
2018-02-20T22:29:09.743Z,44.40
2018-02-20T22:31:39.181Z,45.47
2018-02-20T22:34:07.554Z,43.33
2018-02-20T22:36:35.948Z,45.37
2018-02-20T22:39:04.306Z,43.33
2018-02-20T22:41:32.713Z,43.77
2018-02-20T22:44:01.072Z,42.37
2018-02-20T22:46:29.462Z,42.93
2018-02-20T22:48:57.849Z,43.47
2018-02-20T22:51:26.208Z,44.83
2018-02-20T22:53:54.652Z,40.43
2018-02-20T22:56:23.008Z,42.13
2018-02-20T22:58:51.358Z,43.57
2018-02-20T23:01:19.724Z,41.53
2018-02-20T23:03:48.064Z,41.33
2018-02-20T23:06:16.416Z,40.77
2018-02-20T23:08:44.763Z,40.57
2018-02-20T23:11:13.151Z,41.27
2018-02-20T23:13:41.585Z,38.53
2018-02-20T23:16:09.949Z,37.70
2018-02-20T23:18:38.296Z,39.97
2018-02-20T23:21:06.647Z,38.60
2018-02-20T23:23:35.000Z,40.80
2018-02-20T23:26:04.111Z,38.47
2018-02-20T23:28:33.237Z,39.73
2018-02-20T23:31:01.580Z,37.03
2018-02-20T23:33:30.683Z,40.43
2018-02-20T23:35:59.813Z,38.07
2018-02-20T23:38:28.161Z,38.73
2018-02-20T23:40:57.282Z,38.17
2018-02-20T23:43:25.632Z,37.70
2018-02-20T23:45:54.757Z,37.70
2018-02-20T23:48:23.116Z,38.13
2018-02-20T23:50:51.464Z,36.57
2018-02-20T23:53:22.736Z,35.63
2018-02-20T23:55:51.865Z,35.97
2018-02-20T23:58:20.224Z,37.03
